Time;durP1;ratioP1;P1;durP2;ratioP2;P2;SDS_P1;SDS_P2;PMS_P1;PMS_P2;Temp;Humidity;BMP_temperature;BMP_pressure;BME280_temperature;BME280_humidity;BME280_pressure;Samples;Min_cycle;Max_cycle;Signal;HPM_P1;HPM_P2
2021/05/26 00:01:29;;;;;;;0.63;0.60;;;;;;;-142.37;100.00;59669.53;5032127;28;20040;-64
2021/05/26 00:03:54;;;;;;;1.92;0.55;;;;;;;-142.37;100.00;59669.53;5032115;28;20425;-64
2021/05/26 00:06:20;;;;;;;2.22;0.73;;;;;;;-142.37;100.00;59669.53;5032029;28;20030;-64
2021/05/26 00:08:45;;;;;;;0.70;0.40;;;;;;;-142.37;100.00;59669.53;5032006;28;20033;-65
2021/05/26 00:11:17;;;;;;;1.38;0.50;;;;;;;-142.37;100.00;59669.53;5032191;28;20035;-64
2021/05/26 00:13:44;;;;;;;0.52;0.40;;;;;;;-142.37;100.00;59669.53;5031833;28;20384;-64
2021/05/26 00:16:09;;;;;;;1.10;0.40;;;;;;;-142.37;100.00;59669.53;5031643;28;20033;-64
2021/05/26 00:18:35;;;;;;;1.95;0.70;;;;;;;-142.37;100.00;59669.53;5031777;28;20366;-64
2021/05/26 00:21:03;;;;;;;0.47;0.38;;;;;;;-142.37;100.00;59669.53;5031928;28;20048;-65
2021/05/26 00:23:28;;;;;;;1.50;0.45;;;;;;;-142.37;100.00;59669.53;5031902;28;20049;-64
2021/05/26 00:25:53;;;;;;;2.25;0.60;;;;;;;-142.37;100.00;59669.53;5031786;28;20057;-64
2021/05/26 00:28:19;;;;;;;0.47;0.45;;;;;;;-142.37;100.00;59669.53;5032397;28;20436;-64
2021/05/26 00:30:48;;;;;;;0.60;0.40;;;;;;;-142.37;100.00;59669.53;5035333;28;20427;-65
2021/05/26 00:33:14;;;;;;;1.75;0.63;;;;;;;-142.37;100.00;59669.53;5035472;28;20472;-64
2021/05/26 00:35:39;;;;;;;0.75;0.38;;;;;;;-142.37;100.00;59669.53;5035294;28;20037;-64
2021/05/26 00:38:04;;;;;;;2.00;0.60;;;;;;;-142.37;100.00;59669.53;5035344;28;20021;-64
2021/05/26 00:40:30;;;;;;;0.90;0.32;;;;;;;-142.37;100.00;59669.53;5035141;28;20025;-65
2021/05/26 00:42:56;;;;;;;1.00;0.40;;;;;;;-142.37;100.00;59669.53;5035192;28;20535;-64
2021/05/26 00:45:21;;;;;;;0.32;0.28;;;;;;;-142.37;100.00;59669.53;5034960;28;20037;-64
2021/05/26 00:47:49;;;;;;;0.50;0.50;;;;;;;-142.37;100.00;59669.53;5035024;28;20025;-64
2021/05/26 00:50:20;;;;;;;0.70;0.57;;;;;;;-142.37;100.00;59669.53;5035230;28;20033;-64
2021/05/26 00:52:45;;;;;;;0.80;0.50;;;;;;;-142.37;100.00;59669.53;5034959;28;20021;-64
2021/05/26 00:55:14;;;;;;;0.70;0.50;;;;;;;-142.37;100.00;59669.53;5035147;28;20032;-64
2021/05/26 00:57:40;;;;;;;1.13;0.40;;;;;;;-142.37;100.00;59669.53;5034816;28;20018;-64
2021/05/26 01:00:08;;;;;;;0.40;0.32;;;;;;;-142.37;100.00;59669.53;5033715;28;20079;-64
2021/05/26 01:02:33;;;;;;;0.65;0.40;;;;;;;-142.37;100.00;59669.53;5034670;28;20029;-64
2021/05/26 01:04:59;;;;;;;0.73;0.40;;;;;;;-142.37;100.00;59669.53;5034938;28;20481;-63
2021/05/26 01:07:24;;;;;;;1.05;0.30;;;;;;;-142.37;100.00;59669.53;5034720;28;20353;-64
2021/05/26 01:09:50;;;;;;;2.05;0.85;;;;;;;-142.37;100.00;59669.53;5034713;28;20025;-64
2021/05/26 01:12:15;;;;;;;1.52;0.40;;;;;;;-142.37;100.00;59669.53;5033769;28;20409;-64
2021/05/26 01:14:40;;;;;;;2.58;0.55;;;;;;;-142.37;100.00;59669.53;5034185;28;20112;-64
2021/05/26 01:17:06;;;;;;;0.80;0.47;;;;;;;-142.37;100.00;59669.53;5034257;28;20025;-64
2021/05/26 01:19:32;;;;;;;1.30;0.60;;;;;;;-142.37;100.00;59669.53;5033180;28;20044;-64
2021/05/26 01:21:57;;;;;;;0.57;0.52;;;;;;;-142.37;100.00;59669.53;5034492;28;20053;-63
2021/05/26 01:24:22;;;;;;;1.83;0.47;;;;;;;-142.37;100.00;59669.53;5034361;28;20030;-64
2021/05/26 01:26:48;;;;;;;0.28;0.20;;;;;;;-142.37;100.00;59669.53;5034208;28;20025;-63
2021/05/26 01:29:15;;;;;;;1.42;0.60;;;;;;;-142.37;100.00;59669.53;5034429;28;20028;-64
2021/05/26 01:31:40;;;;;;;0.65;0.32;;;;;;;-142.37;100.00;59669.53;5034205;28;20033;-63
2021/05/26 01:34:06;;;;;;;0.30;0.30;;;;;;;-142.37;100.00;59669.53;5034337;28;20063;-63
2021/05/26 01:36:34;;;;;;;0.40;0.38;;;;;;;-142.37;100.00;59669.53;5034106;28;20057;-63
2021/05/26 01:38:59;;;;;;;0.63;0.50;;;;;;;-142.37;100.00;59669.53;5034197;28;20021;-63
2021/05/26 01:41:25;;;;;;;0.30;0.30;;;;;;;-142.37;100.00;59669.53;5031728;28;20365;-63
2021/05/26 01:43:51;;;;;;;0.73;0.30;;;;;;;-142.37;100.00;59669.53;5034011;28;20033;-64
2021/05/26 01:46:16;;;;;;;1.20;0.43;;;;;;;-142.37;100.00;59669.53;5033633;28;20025;-63
2021/05/26 01:48:46;;;;;;;1.00;0.22;;;;;;;-142.37;100.00;59669.53;5033889;28;20060;-63
2021/05/26 01:51:11;;;;;;;0.45;0.28;;;;;;;-142.37;100.00;59669.53;5033989;28;20033;-63
2021/05/26 01:53:36;;;;;;;1.08;0.40;;;;;;;-142.37;100.00;59669.53;5033785;28;20017;-63
2021/05/26 01:56:02;;;;;;;0.75;0.30;;;;;;;-142.37;100.00;59669.53;5034464;28;20037;-63
2021/05/26 01:58:27;;;;;;;0.73;0.47;;;;;;;-142.37;100.00;59669.53;5033684;28;20025;-63
2021/05/26 02:00:52;;;;;;;0.80;0.30;;;;;;;-142.37;100.00;59669.53;5033639;28;20033;-63
2021/05/26 02:03:18;;;;;;;1.65;0.60;;;;;;;-142.37;100.00;59669.53;5033771;28;20042;-63
2021/05/26 02:05:43;;;;;;;1.55;0.30;;;;;;;-142.37;100.00;59669.53;5033433;28;20029;-63
2021/05/26 02:08:08;;;;;;;0.30;0.30;;;;;;;-142.37;100.00;59669.53;5033713;28;20055;-63
2021/05/26 02:13:18;;;;;;;0.28;0.20;;;;;;;-142.37;100.00;59669.53;5033889;28;20087;-63
2021/05/26 02:15:43;;;;;;;1.50;0.77;;;;;;;-142.37;100.00;59669.53;5028690;28;20029;-64
2021/05/26 02:18:08;;;;;;;0.60;0.30;;;;;;;-142.37;100.00;59669.53;5013763;28;20104;-64
2021/05/26 02:20:34;;;;;;;1.40;0.40;;;;;;;-142.37;100.00;59669.53;5013422;28;20096;-63
2021/05/26 02:22:59;;;;;;;0.60;0.30;;;;;;;-142.37;100.00;59669.53;5013554;28;20050;-63
2021/05/26 02:25:24;;;;;;;0.50;0.32;;;;;;;-142.37;100.00;59669.53;5013457;28;20457;-64
2021/05/26 02:27:50;;;;;;;1.38;0.30;;;;;;;-142.37;100.00;59669.53;5013455;28;20030;-63
2021/05/26 02:30:16;;;;;;;1.83;0.40;;;;;;;-142.37;100.00;59669.53;5013602;28;20488;-63
2021/05/26 02:32:41;;;;;;;0.90;0.30;;;;;;;-142.37;100.00;59669.53;5013280;28;20021;-64
2021/05/26 02:35:07;;;;;;;0.65;0.20;;;;;;;-142.37;100.00;59669.53;5013510;28;20049;-64
2021/05/26 02:37:32;;;;;;;0.80;0.30;;;;;;;-142.37;100.00;59669.53;5013206;28;20022;-64
2021/05/26 02:39:57;;;;;;;2.28;0.25;;;;;;;-142.37;100.00;59669.53;5013300;28;20029;-63
2021/05/26 02:42:23;;;;;;;0.70;0.30;;;;;;;-142.37;100.00;59669.53;5013283;28;20026;-64
2021/05/26 02:44:48;;;;;;;0.68;0.32;;;;;;;-142.37;100.00;59669.53;5021765;28;20033;-64
2021/05/26 02:47:14;;;;;;;1.10;0.28;;;;;;;-142.37;100.00;59669.53;5032922;28;20025;-64
2021/05/26 02:49:39;;;;;;;0.40;0.30;;;;;;;-142.37;100.00;59669.53;5031107;28;20040;-64
2021/05/26 02:52:04;;;;;;;1.35;0.30;;;;;;;-142.37;100.00;59669.53;5032541;28;20045;-64
2021/05/26 02:54:30;;;;;;;0.50;0.25;;;;;;;-142.37;100.00;59669.53;5031431;28;20461;-64
2021/05/26 02:56:55;;;;;;;0.63;0.30;;;;;;;-142.37;100.00;59669.53;5033092;28;20018;-63
2021/05/26 02:59:20;;;;;;;0.50;0.17;;;;;;;-142.37;100.00;59669.53;5032889;28;20036;-64
2021/05/26 03:01:45;;;;;;;0.40;0.20;;;;;;;-142.37;100.00;59669.53;5032886;28;20028;-64
2021/05/26 03:04:11;;;;;;;0.93;0.30;;;;;;;-142.37;100.00;59669.53;5032777;28;20021;-64
2021/05/26 03:06:36;;;;;;;0.95;0.32;;;;;;;-142.37;100.00;59669.53;5032390;28;20030;-64
2021/05/26 03:09:02;;;;;;;1.35;0.35;;;;;;;-142.37;100.00;59669.53;5032698;28;20033;-64
2021/05/26 03:11:27;;;;;;;1.02;0.30;;;;;;;-142.37;100.00;59669.53;5032636;28;20108;-64
2021/05/26 03:13:52;;;;;;;0.55;0.22;;;;;;;-142.37;100.00;59669.53;5032140;28;20056;-64
2021/05/26 03:16:17;;;;;;;0.10;0.10;;;;;;;-142.37;100.00;59669.53;5032303;28;20026;-64
2021/05/26 03:18:45;;;;;;;1.58;0.40;;;;;;;-142.37;100.00;59669.53;5032676;28;20498;-64
2021/05/26 03:21:10;;;;;;;0.40;0.30;;;;;;;-142.37;100.00;59669.53;5032499;28;20049;-64
2021/05/26 03:23:36;;;;;;;0.10;0.10;;;;;;;-142.37;100.00;59669.53;5032365;28;20358;-64
2021/05/26 03:26:01;;;;;;;1.63;0.30;;;;;;;-142.37;100.00;59669.53;5029006;28;20065;-64
2021/05/26 03:28:27;;;;;;;1.02;0.20;;;;;;;-142.37;100.00;59669.53;5012308;28;20067;-65
2021/05/26 03:30:52;;;;;;;0.20;0.20;;;;;;;-142.37;100.00;59669.53;5012746;28;20041;-64
2021/05/26 03:33:19;;;;;;;0.55;0.20;;;;;;;-142.37;100.00;59669.53;5012767;28;20041;-65
2021/05/26 03:35:44;;;;;;;1.27;0.25;;;;;;;-142.37;100.00;59669.53;5012555;28;20032;-64
2021/05/26 03:38:11;;;;;;;1.77;0.63;;;;;;;-142.37;100.00;59669.53;5012721;28;20022;-64
2021/05/26 03:40:36;;;;;;;0.38;0.20;;;;;;;-142.37;100.00;59669.53;5012445;28;20037;-64
2021/05/26 03:43:02;;;;;;;0.90;0.30;;;;;;;-142.37;100.00;59669.53;5012952;28;20033;-64
2021/05/26 03:45:27;;;;;;;0.28;0.28;;;;;;;-142.37;100.00;59669.53;5028217;28;20173;-64
2021/05/26 03:47:53;;;;;;;2.17;0.40;;;;;;;-142.37;100.00;59669.53;5032285;28;20091;-64
2021/05/26 03:50:19;;;;;;;0.52;0.20;;;;;;;-142.37;100.00;59669.53;5032290;28;20535;-64
2021/05/26 03:52:46;;;;;;;0.40;0.10;;;;;;;-142.37;100.00;59669.53;5032659;28;20030;-64
2021/05/26 03:55:14;;;;;;;0.77;0.30;;;;;;;-142.37;100.00;59669.53;5032260;28;20029;-64
2021/05/26 03:57:40;;;;;;;0.52;0.20;;;;;;;-142.37;100.00;59669.53;5032086;28;20488;-64
2021/05/26 04:00:07;;;;;;;0.32;0.28;;;;;;;-142.37;100.00;59669.53;5032146;28;20029;-64
2021/05/26 04:02:33;;;;;;;0.10;0.10;;;;;;;-142.37;100.00;59669.53;5031927;28;20423;-64
2021/05/26 04:04:59;;;;;;;1.90;0.52;;;;;;;-142.37;100.00;59669.53;5035275;28;20469;-64
2021/05/26 04:07:24;;;;;;;0.47;0.25;;;;;;;-142.37;100.00;59669.53;5035860;28;20029;-65
2021/05/26 04:09:49;;;;;;;1.45;0.32;;;;;;;-142.37;100.00;59669.53;5035804;28;20536;-64
2021/05/26 04:12:14;;;;;;;0.30;0.30;;;;;;;-142.37;100.00;59669.53;5035945;28;20025;-65
2021/05/26 04:14:40;;;;;;;0.63;0.20;;;;;;;-142.37;100.00;59669.53;5035227;28;20483;-64
2021/05/26 04:17:05;;;;;;;1.27;0.10;;;;;;;-142.37;100.00;59669.53;5035759;28;20022;-65
2021/05/26 04:19:30;;;;;;;1.52;0.32;;;;;;;-142.37;100.00;59669.53;5035673;28;20350;-65
2021/05/26 04:21:55;;;;;;;0.57;0.47;;;;;;;-142.37;100.00;59669.53;5035507;28;20042;-65
2021/05/26 04:24:21;;;;;;;0.22;0.22;;;;;;;-142.37;100.00;59669.53;5035588;28;20025;-64
2021/05/26 04:26:46;;;;;;;0.35;0.15;;;;;;;-142.37;100.00;59669.53;5035335;28;20141;-64
2021/05/26 04:29:11;;;;;;;1.20;0.10;;;;;;;-142.37;100.00;59669.53;5035643;28;20365;-65
2021/05/26 04:31:36;;;;;;;0.25;0.17;;;;;;;-142.37;100.00;59669.53;5035391;28;20021;-64
2021/05/26 04:34:02;;;;;;;0.68;0.20;;;;;;;-142.37;100.00;59669.53;5035516;28;20041;-64
2021/05/26 04:36:27;;;;;;;0.70;0.20;;;;;;;-142.37;100.00;59669.53;5035258;28;20092;-65
2021/05/26 04:38:52;;;;;;;1.52;0.10;;;;;;;-142.37;100.00;59669.53;5035320;28;20362;-64
2021/05/26 04:41:18;;;;;;;0.52;0.30;;;;;;;-142.37;100.00;59669.53;5035428;28;20022;-65
2021/05/26 04:43:43;;;;;;;0.43;0.20;;;;;;;-142.37;100.00;59669.53;5034741;28;20556;-65
2021/05/26 04:46:08;;;;;;;0.75;0.40;;;;;;;-142.37;100.00;59669.53;5033742;28;20088;-64
2021/05/26 04:48:33;;;;;;;0.28;0.10;;;;;;;-142.37;100.00;59669.53;5034892;28;20033;-65
2021/05/26 04:50:59;;;;;;;0.35;0.17;;;;;;;-142.37;100.00;59669.53;5035187;28;20025;-65
2021/05/26 04:53:24;;;;;;;0.60;0.20;;;;;;;-142.37;100.00;59669.53;5033805;28;20028;-65
2021/05/26 04:55:49;;;;;;;0.57;0.10;;;;;;;-142.37;100.00;59669.53;5035568;28;20109;-64
2021/05/26 04:58:15;;;;;;;0.55;0.20;;;;;;;-142.37;100.00;59669.53;5035058;28;20354;-65
2021/05/26 05:00:40;;;;;;;0.85;0.17;;;;;;;-142.37;100.00;59669.53;5033536;28;20052;-64
2021/05/26 05:03:06;;;;;;;0.22;0.10;;;;;;;-142.37;100.00;59669.53;5033632;28;20384;-64
2021/05/26 05:05:32;;;;;;;0.30;0.10;;;;;;;-142.37;100.00;59669.53;5034718;28;20026;-64
2021/05/26 05:07:58;;;;;;;0.93;0.10;;;;;;;-142.37;100.00;59669.53;5034871;28;20500;-64
2021/05/26 05:10:24;;;;;;;1.27;0.20;;;;;;;-142.37;100.00;59669.53;5034713;28;20025;-65
2021/05/26 05:12:49;;;;;;;0.65;0.10;;;;;;;-142.37;100.00;59669.53;5034949;28;20030;-65
2021/05/26 05:15:15;;;;;;;0.00;0.00;;;;;;;-142.37;100.00;59669.53;5034103;28;20112;-64
2021/05/26 05:17:40;;;;;;;0.68;0.20;;;;;;;-142.37;100.00;59669.53;5034511;28;20044;-64
2021/05/26 05:20:06;;;;;;;0.85;0.10;;;;;;;-142.37;100.00;59669.53;5034588;28;20033;-64
2021/05/26 05:22:31;;;;;;;0.47;0.10;;;;;;;-142.37;100.00;59669.53;5034100;28;20053;-65
2021/05/26 05:24:56;;;;;;;1.27;0.25;;;;;;;-142.37;100.00;59669.53;5034745;28;20026;-65
2021/05/26 05:27:22;;;;;;;0.85;0.10;;;;;;;-142.37;100.00;59669.53;5034283;28;20476;-65
2021/05/26 05:29:47;;;;;;;0.20;0.10;;;;;;;-142.37;100.00;59669.53;5034599;28;20025;-65
2021/05/26 05:32:12;;;;;;;0.50;0.30;;;;;;;-142.37;100.00;59669.53;5033114;28;20079;-65
2021/05/26 05:34:38;;;;;;;0.77;0.50;;;;;;;-142.37;100.00;59669.53;5034061;28;20366;-64
2021/05/26 05:37:03;;;;;;;0.50;0.10;;;;;;;-142.37;100.00;59669.53;5033033;28;20036;-65
2021/05/26 05:39:28;;;;;;;0.20;0.10;;;;;;;-142.37;100.00;59669.53;5034133;28;20033;-65
2021/05/26 05:41:54;;;;;;;1.08;0.40;;;;;;;-142.37;100.00;59669.53;5034154;28;20072;-65
2021/05/26 05:44:19;;;;;;;0.30;0.20;;;;;;;-142.37;100.00;59669.53;5033868;28;20035;-64
2021/05/26 05:46:44;;;;;;;0.57;0.10;;;;;;;-142.37;100.00;59669.53;5033811;28;20025;-64
2021/05/26 05:49:10;;;;;;;0.85;0.57;;;;;;;-142.37;100.00;59669.53;5034099;28;20033;-65
2021/05/26 05:51:35;;;;;;;0.30;0.10;;;;;;;-142.37;100.00;59669.53;5033832;28;20072;-65
2021/05/26 05:54:00;;;;;;;0.10;0.08;;;;;;;-142.37;100.00;59669.53;5033995;28;20083;-64
2021/05/26 05:56:26;;;;;;;0.52;0.32;;;;;;;-142.37;100.00;59669.53;5033798;28;20029;-65
2021/05/26 05:58:51;;;;;;;0.50;0.20;;;;;;;-142.37;100.00;59669.53;5033813;28;20025;-65
2021/05/26 06:01:16;;;;;;;0.10;0.05;;;;;;;-142.37;100.00;59669.53;5034158;28;20412;-65
2021/05/26 06:03:41;;;;;;;0.73;0.10;;;;;;;-142.37;100.00;59669.53;5027321;28;20053;-65
2021/05/26 06:06:08;;;;;;;0.20;0.10;;;;;;;-142.37;100.00;59669.53;5024850;28;20048;-65
2021/05/26 06:08:35;;;;;;;0.68;0.17;;;;;;;-142.37;100.00;59669.53;5031294;28;20029;-65
2021/05/26 06:11:00;;;;;;;1.85;0.10;;;;;;;-142.37;100.00;59669.53;5015970;28;20464;-65
2021/05/26 06:13:27;;;;;;;0.47;0.20;;;;;;;-142.37;100.00;59669.53;5012862;28;20037;-65
2021/05/26 06:15:52;;;;;;;1.38;0.10;;;;;;;-142.37;100.00;59669.53;5027963;28;20013;-65
2021/05/26 06:18:18;;;;;;;0.50;0.10;;;;;;;-142.37;100.00;59669.53;5031590;28;20020;-65
2021/05/26 06:20:43;;;;;;;0.20;0.10;;;;;;;-142.37;100.00;59669.53;5031384;28;20412;-65
2021/05/26 06:23:08;;;;;;;0.80;0.10;;;;;;;-142.37;100.00;59669.53;5016485;28;20042;-65
2021/05/26 06:25:34;;;;;;;0.90;0.10;;;;;;;-142.37;100.00;59669.53;5012360;28;20488;-65
2021/05/26 06:27:59;;;;;;;0.65;0.08;;;;;;;-142.37;100.00;59669.53;5012511;28;20116;-66
2021/05/26 06:30:24;;;;;;;0.43;0.22;;;;;;;-142.37;100.00;59669.53;5014816;28;20034;-65
2021/05/26 06:32:50;;;;;;;0.57;0.30;;;;;;;-142.37;100.00;59669.53;5020014;28;20091;-66
2021/05/26 06:35:15;;;;;;;0.68;0.00;;;;;;;-142.37;100.00;59669.53;5031260;28;20021;-65
2021/05/26 06:37:42;;;;;;;1.33;0.15;;;;;;;-142.37;100.00;59669.53;5021573;28;20467;-65
2021/05/26 06:40:08;;;;;;;0.68;0.10;;;;;;;-142.37;100.00;59669.53;5024085;28;20021;-65
2021/05/26 06:42:33;;;;;;;0.28;0.10;;;;;;;-142.37;100.00;59669.53;5026009;28;20373;-66
2021/05/26 06:44:58;;;;;;;1.45;0.10;;;;;;;-142.37;100.00;59669.53;5028990;28;20067;-65
2021/05/26 06:47:24;;;;;;;0.65;0.10;;;;;;;-142.37;100.00;59669.53;5027212;28;20048;-65
2021/05/26 06:49:49;;;;;;;1.08;0.20;;;;;;;-142.37;100.00;59669.53;5022737;28;20487;-64
2021/05/26 06:52:14;;;;;;;0.43;0.00;;;;;;;-142.37;100.00;59669.53;5024326;28;20061;-65
2021/05/26 06:54:40;;;;;;;0.52;0.17;;;;;;;-142.37;100.00;59669.53;5025374;28;20384;-65
2021/05/26 06:57:06;;;;;;;0.90;0.10;;;;;;;-142.37;100.00;59669.53;5027762;28;20034;-64
2021/05/26 06:59:31;;;;;;;0.25;0.13;;;;;;;-142.37;100.00;59669.53;5031499;28;20025;-65
2021/05/26 07:01:56;;;;;;;0.20;0.10;;;;;;;-142.37;100.00;59669.53;5031128;28;20091;-64
2021/05/26 07:04:22;;;;;;;0.52;0.10;;;;;;;-142.37;100.00;59669.53;5029863;28;20029;-65
2021/05/26 07:06:47;;;;;;;0.88;0.30;;;;;;;-142.37;100.00;59669.53;5030683;28;20378;-64
2021/05/26 07:09:12;;;;;;;0.35;0.20;;;;;;;-142.37;100.00;59669.53;5030745;28;20100;-65
2021/05/26 07:11:38;;;;;;;0.45;0.10;;;;;;;-142.37;100.00;59669.53;5022759;28;20053;-64
2021/05/26 07:14:03;;;;;;;0.35;0.20;;;;;;;-142.37;100.00;59669.53;5027837;28;20512;-66
2021/05/26 07:16:28;;;;;;;0.47;0.13;;;;;;;-142.37;100.00;59669.53;5031880;28;20276;-65
2021/05/26 07:18:57;;;;;;;0.57;0.17;;;;;;;-142.37;100.00;59669.53;5032104;28;20432;-66
2021/05/26 07:21:23;;;;;;;1.65;0.43;;;;;;;-142.37;100.00;59669.53;5031414;28;20044;-65
2021/05/26 07:23:48;;;;;;;0.60;0.20;;;;;;;-142.37;100.00;59669.53;5030025;28;20112;-64
2021/05/26 07:26:13;;;;;;;1.20;0.45;;;;;;;-142.37;100.00;59669.53;5029817;28;20447;-66
2021/05/26 07:28:40;;;;;;;0.93;0.15;;;;;;;-142.37;100.00;59669.53;5030601;28;20040;-65
2021/05/26 07:31:05;;;;;;;0.45;0.20;;;;;;;-142.37;100.00;59669.53;5031371;28;20030;-65
2021/05/26 07:33:31;;;;;;;0.85;0.30;;;;;;;-142.37;100.00;59669.53;5032062;28;20025;-65
2021/05/26 07:35:56;;;;;;;0.40;0.10;;;;;;;-142.37;100.00;59669.53;5025902;28;20022;-65
2021/05/26 07:38:21;;;;;;;1.15;0.20;;;;;;;-142.37;100.00;59669.53;5024007;28;20508;-65
2021/05/26 07:40:46;;;;;;;0.50;0.20;;;;;;;-142.37;100.00;59669.53;5024665;28;20053;-64
2021/05/26 07:43:12;;;;;;;1.50;0.50;;;;;;;-142.37;100.00;59669.53;5026170;28;20485;-65
2021/05/26 07:45:37;;;;;;;0.65;0.38;;;;;;;-142.37;100.00;59669.53;5034513;28;20071;-65
2021/05/26 07:48:03;;;;;;;0.32;0.17;;;;;;;-142.37;100.00;59669.53;5034804;28;20083;-65
2021/05/26 07:50:34;;;;;;;3.65;0.57;;;;;;;-142.37;100.00;59669.53;5027817;28;20034;-65
2021/05/26 07:52:59;;;;;;;1.38;0.30;;;;;;;-142.37;100.00;59669.53;5025926;28;20472;-65
2021/05/26 07:55:25;;;;;;;0.85;0.10;;;;;;;-142.37;100.00;59669.53;5032311;28;20022;-65
2021/05/26 07:57:50;;;;;;;1.25;0.20;;;;;;;-142.37;100.00;59669.53;5029859;28;20089;-65
2021/05/26 08:00:16;;;;;;;1.10;0.30;;;;;;;-142.37;100.00;59669.53;5030868;28;20040;-63
2021/05/26 08:02:41;;;;;;;0.57;0.25;;;;;;;-142.37;100.00;59669.53;5026981;28;20058;-66
2021/05/26 08:05:07;;;;;;;0.45;0.30;;;;;;;-142.37;100.00;59669.53;5026435;28;20055;-65
2021/05/26 08:07:32;;;;;;;0.77;0.30;;;;;;;-142.37;100.00;59669.53;5019671;28;20041;-66
2021/05/26 08:09:57;;;;;;;0.52;0.30;;;;;;;-142.37;100.00;59669.53;5020124;28;20032;-66
2021/05/26 08:12:23;;;;;;;3.13;0.40;;;;;;;-142.37;100.00;59669.53;5025334;28;20029;-68
2021/05/26 08:14:48;;;;;;;1.05;0.38;;;;;;;-142.37;100.00;59669.53;5029714;28;20106;-66
2021/05/26 08:17:14;;;;;;;4.18;0.55;;;;;;;-142.37;100.00;59669.53;5020821;28;20033;-66
2021/05/26 08:19:39;;;;;;;3.17;1.63;;;;;;;-142.37;100.00;59669.53;5035036;28;20029;-65
2021/05/26 08:22:04;;;;;;;4.82;3.72;;;;;;;-142.37;100.00;59669.53;5034510;28;20041;-67
2021/05/26 08:24:29;;;;;;;6.05;4.97;;;;;;;-142.37;100.00;59669.53;5032794;28;20033;-68
2021/05/26 08:26:55;;;;;;;8.35;5.00;;;;;;;-142.37;100.00;59669.53;5034577;28;20029;-66
2021/05/26 08:29:20;;;;;;;5.88;4.63;;;;;;;-142.37;100.00;59669.53;5033771;28;20053;-66
2021/05/26 08:31:46;;;;;;;4.22;3.42;;;;;;;-142.37;100.00;59669.53;5031397;28;20018;-66
2021/05/26 08:34:11;;;;;;;4.25;3.20;;;;;;;-142.37;100.00;59669.53;5025681;28;20021;-66
2021/05/26 08:36:37;;;;;;;3.35;3.05;;;;;;;-142.37;100.00;59669.53;5031983;28;20060;-65
2021/05/26 08:39:05;;;;;;;4.13;2.92;;;;;;;-142.37;100.00;59669.53;5028713;28;20041;-66
2021/05/26 08:41:31;;;;;;;3.53;2.80;;;;;;;-142.37;100.00;59669.53;5031572;28;20033;-66
2021/05/26 08:43:56;;;;;;;4.20;3.22;;;;;;;-142.37;100.00;59669.53;5027777;28;20025;-65
2021/05/26 08:46:22;;;;;;;3.97;2.45;;;;;;;-142.37;100.00;59669.53;5029823;28;20039;-64
2021/05/26 08:48:51;;;;;;;2.85;2.10;;;;;;;-142.37;100.00;59669.53;5032386;28;20488;-65
2021/05/26 08:51:18;;;;;;;2.65;2.03;;;;;;;-142.37;100.00;59669.53;5028031;28;20032;-65
2021/05/26 08:53:44;;;;;;;2.97;2.08;;;;;;;-142.37;100.00;59669.53;5031649;28;20021;-65
2021/05/26 08:56:09;;;;;;;1.92;1.70;;;;;;;-142.37;100.00;59669.53;5034407;28;20025;-65
2021/05/26 08:58:42;;;;;;;2.03;1.80;;;;;;;-142.37;100.00;59669.53;5029703;28;20396;-66
2021/05/26 09:01:08;;;;;;;2.05;1.70;;;;;;;-142.37;100.00;59669.53;5034320;28;20048;-66
2021/05/26 09:03:35;;;;;;;2.17;1.70;;;;;;;-142.37;100.00;59669.53;5033732;28;20465;-68
2021/05/26 09:06:00;;;;;;;1.80;1.65;;;;;;;-142.37;100.00;59669.53;5031815;28;20372;-67
2021/05/26 09:08:26;;;;;;;1.20;1.10;;;;;;;-142.37;100.00;59669.53;5030452;28;20030;-68
2021/05/26 09:10:56;;;;;;;1.63;1.50;;;;;;;-142.37;100.00;59669.53;5032817;28;20025;-67
2021/05/26 09:13:34;;;;;;;1.55;1.13;;;;;;;-142.37;100.00;59669.53;5031922;28;20029;-68
2021/05/26 09:16:00;;;;;;;2.05;1.60;;;;;;;-142.37;100.00;59669.53;5031301;28;20465;-68
2021/05/26 09:18:25;;;;;;;1.15;1.05;;;;;;;-142.37;100.00;59669.53;5033988;28;20040;-67
2021/05/26 09:20:51;;;;;;;1.08;0.98;;;;;;;-142.37;100.00;59669.53;5032318;28;20030;-67
2021/05/26 09:23:25;;;;;;;0.93;0.90;;;;;;;-142.37;100.00;59669.53;5033727;28;20033;-68
2021/05/26 09:25:55;;;;;;;1.85;0.98;;;;;;;-142.37;100.00;59669.53;5031378;28;20091;-68
2021/05/26 09:28:22;;;;;;;1.27;0.80;;;;;;;-142.37;100.00;59669.53;5034512;28;20029;-71
2021/05/26 09:30:56;;;;;;;1.30;1.10;;;;;;;-142.37;100.00;59669.53;5034221;28;20024;-67
2021/05/26 09:33:40;;;;;;;1.75;0.60;;;;;;;-142.37;100.00;59669.53;5031955;28;20045;-68
2021/05/26 09:36:19;;;;;;;0.85;0.75;;;;;;;-142.37;100.00;59669.53;5017976;28;20061;-69
2021/05/26 09:38:56;;;;;;;0.80;0.65;;;;;;;-142.37;100.00;59669.53;5025704;28;20033;-68
2021/05/26 09:41:31;;;;;;;3.58;0.57;;;;;;;-142.37;100.00;59669.53;5032322;28;20053;-64
2021/05/26 09:44:11;;;;;;;2.30;0.70;;;;;;;-142.37;100.00;59669.53;5031668;28;20400;-68
2021/05/26 09:46:43;;;;;;;0.43;0.43;;;;;;;-142.37;100.00;59669.53;5033653;28;20580;-67
2021/05/26 09:49:16;;;;;;;0.50;0.40;;;;;;;-142.37;100.00;59669.53;5033663;28;20487;-68
2021/05/26 09:51:51;;;;;;;0.77;0.28;;;;;;;-142.37;100.00;59669.53;5029676;28;20392;-69
2021/05/26 09:54:23;;;;;;;0.32;0.30;;;;;;;-142.37;100.00;59669.53;5029597;28;20021;-69
2021/05/26 09:56:53;;;;;;;0.55;0.30;;;;;;;-142.37;100.00;59669.53;5024124;28;20107;-69
2021/05/26 09:59:22;;;;;;;1.13;0.30;;;;;;;-142.37;100.00;59669.53;5031928;28;20054;-69
2021/05/26 10:01:54;;;;;;;0.68;0.60;;;;;;;-142.37;100.00;59669.53;5031505;28;20503;-69
2021/05/26 10:04:19;;;;;;;0.40;0.40;;;;;;;-142.37;100.00;59669.53;5033689;28;20029;-69
2021/05/26 10:06:45;;;;;;;0.77;0.30;;;;;;;-142.37;100.00;59669.53;5033183;28;20127;-69
2021/05/26 10:09:13;;;;;;;0.70;0.30;;;;;;;-142.37;100.00;59669.53;5030348;28;20025;-70
2021/05/26 10:11:39;;;;;;;0.55;0.30;;;;;;;-142.37;100.00;59669.53;5013798;28;20026;-69
2021/05/26 10:14:12;;;;;;;0.40;0.30;;;;;;;-142.37;100.00;59669.53;5029204;28;20041;-69
2021/05/26 10:16:42;;;;;;;0.75;0.20;;;;;;;-142.37;100.00;59669.53;5032481;28;20112;-69
2021/05/26 10:19:13;;;;;;;0.30;0.20;;;;;;;-142.37;100.00;59669.53;5033141;28;20222;-69
2021/05/26 10:21:40;;;;;;;0.93;0.45;;;;;;;-142.37;100.00;59669.53;5029014;23;20052;-68
2021/05/26 10:24:18;;;;;;;0.75;0.30;;;;;;;;;;5069988;28;20382;-67
2021/05/26 10:26:46;;;;;;;0.55;0.28;;;;;;;;;;5069648;28;20511;-68
2021/05/26 10:29:29;;;;;;;0.60;0.25;;;;;;;;;;5069951;28;20480;-68
2021/05/26 10:31:57;;;;;;;0.20;0.10;;;;;;;;;;5069849;28;20028;-68
2021/05/26 10:34:41;;;;;;;0.13;0.13;;;;;;;;;;5067606;28;20452;-67
2021/05/26 10:37:06;;;;;;;0.30;0.20;;;;;;;;;;5069833;28;20086;-67
2021/05/26 10:39:31;;;;;;;0.88;0.20;;;;;;;;;;5068241;28;20472;-68
2021/05/26 10:41:57;;;;;;;0.83;0.20;;;;;;;;;;5069630;28;20029;-68
2021/05/26 10:44:22;;;;;;;0.30;0.20;;;;;;;;;;5069313;28;20020;-68
2021/05/26 10:46:50;;;;;;;0.45;0.20;;;;;;;;;;5068818;28;20021;-68
2021/05/26 10:49:15;;;;;;;0.57;0.20;;;;;;;;;;5069379;28;20031;-68
2021/05/26 10:51:52;;;;;;;0.88;0.22;;;;;;;;;;5069635;28;20020;-68
2021/05/26 10:54:36;;;;;;;0.10;0.10;;;;;;;;;;5069456;28;20028;-67
2021/05/26 10:57:01;;;;;;;0.57;0.20;;;;;;;;;;5069407;28;20017;-67
2021/05/26 10:59:27;;;;;;;0.08;0.08;;;;;;;;;;5065318;28;20445;-67
2021/05/26 11:02:13;;;;;;;0.10;0.10;;;;;;;;;;5068728;28;20468;-67
2021/05/26 11:04:40;;;;;;;0.40;0.10;;;;;;;;;;5068665;28;20640;-67
2021/05/26 11:07:17;;;;;;;0.20;0.10;;;;;;;;;;5069078;28;20016;-68
2021/05/26 11:10:01;;;;;;;0.20;0.10;;;;;;;;;;5068756;28;20041;-68
2021/05/26 11:12:27;;;;;;;0.55;0.10;;;;;;;;;;5068371;28;20410;-67
2021/05/26 11:14:55;;;;;;;0.55;0.20;;;;;;;;;;5067256;28;20141;-67
2021/05/26 11:17:23;;;;;;;0.13;0.10;;;;;;;;;;5073241;28;20056;-67
2021/05/26 11:19:48;;;;;;;0.40;0.10;;;;;;;;;;5081705;28;20046;-67
2021/05/26 11:22:15;;;;;;;0.85;0.20;;;;;;;;;;5071598;28;20037;-67
2021/05/26 11:24:46;;;;;;;1.63;0.40;;;;;;;;;;5080109;28;20557;-66